Observations for CRANFIELD, United Kingdom (EGTC)

EGTC 191620Z 24006KT 210V280 9999 FEW035 12/08 Q1001
EGTC 191550Z 24005KT 9999 FEW035 12/08 Q1001
EGTC 191520Z 24009KT 9999 FEW030 13/08 Q1000
EGTC 191450Z 24006KT 9999 FEW025 SCT048 12/08 Q1000 
EGTC 191420Z 25006KT 9999 SCT048 12/08 Q1000
EGTC 191350Z 24009KT 9999 BKN043 13/09 Q1000
EGTC 191320Z 24007KT 9999 FEW025 SCT043 12/08 Q1000 
EGTC 191250Z 24010KT 9999 FEW021 SCT049 13/08 Q0999 
EGTC 191220Z 24009KT 200V280 9999 SCT025 13/09 Q0999
EGTC 191150Z 24008KT 9999 BKN023 12/08 Q0999
EGTC 191120Z 23013KT 9999 SCT020 13/08 Q0999
EGTC 191050Z 23010KT 190V290 9999 SCT018 13/09 Q0999
EGTC 191020Z 22012KT 200V270 9999 SCT014 11/09 Q0990
EGTC 190950Z 22011KT 9999 SCT014 12/09 Q0998
EGTC 190920Z 23012KT 9999 FEW012 11/09 Q0998
EGTC 190850Z 23010KT 9999 FEW010 10/09 Q0998
EGTC 190820Z 22011KT 9999 FEW009 09/08 Q0998
EGTC 190750Z 22009KT 9999 FEW008 09/08 Q0998
EGTC 190720Z 22011KT 9999 FEW012 08/08 Q0997